Time;durP1;ratioP1;P1;durP2;ratioP2;P2;SDS_P1;SDS_P2;PMS_P1;PMS_P2;Temp;Humidity;BMP_temperature;BMP_pressure;BME280_temperature;BME280_humidity;BME280_pressure;Samples;Min_cycle;Max_cycle;Signal;HPM_P1;HPM_P2
2021/10/21 00:01:57;;;;;;;13.68;7.95;;;;;;;;;;5061219;28;20028;-63
2021/10/21 00:04:42;;;;;;;14.35;8.35;;;;;;;;;;5051959;28;20029;-63
2021/10/21 00:07:28;;;;;;;9.57;6.45;;;;;;;;;;5049080;28;20629;-62
2021/10/21 00:10:13;;;;;;;12.95;8.50;;;;;;;;;;5056200;28;20025;-68
2021/10/21 00:12:58;;;;;;;10.38;7.93;;;;;;;;;;5053815;28;20036;-64
2021/10/21 00:15:44;;;;;;;12.30;7.40;;;;;;;;;;5048780;28;20476;-64
2021/10/21 00:18:29;;;;;;;16.65;8.63;;;;;;;;;;5051644;28;20504;-63
2021/10/21 00:21:14;;;;;;;14.10;9.18;;;;;;;;;;5060313;28;20025;-64
2021/10/21 00:24:00;;;;;;;14.73;7.05;;;;;;;;;;5059510;28;20029;-65
2021/10/21 00:26:46;;;;;;;9.35;6.65;;;;;;;;;;5058122;28;20076;-61
2021/10/21 00:29:31;;;;;;;12.15;7.63;;;;;;;;;;5054266;28;20036;-62
2021/10/21 00:32:16;;;;;;;13.80;8.13;;;;;;;;;;5052704;28;20036;-63
2021/10/21 00:35:02;;;;;;;10.50;7.03;;;;;;;;;;5056905;28;20036;-65
2021/10/21 00:37:47;;;;;;;10.18;6.43;;;;;;;;;;5053373;28;20025;-65
2021/10/21 00:40:32;;;;;;;14.40;8.93;;;;;;;;;;5063698;28;20064;-64
2021/10/21 00:43:18;;;;;;;12.25;7.63;;;;;;;;;;5054806;28;20033;-62
2021/10/21 00:46:07;;;;;;;11.05;7.10;;;;;;;;;;5058882;28;20049;-60
2021/10/21 00:48:52;;;;;;;11.57;8.30;;;;;;;;;;5063137;28;20045;-62
2021/10/21 00:51:38;;;;;;;10.63;8.10;;;;;;;;;;5067609;28;20024;-62
2021/10/21 00:54:24;;;;;;;13.18;7.72;;;;;;;;;;5056007;28;20074;-63
2021/10/21 00:57:11;;;;;;;11.07;7.40;;;;;;;;;;5059203;28;20032;-62
2021/10/21 00:59:57;;;;;;;14.55;8.40;;;;;;;;;;5058407;28;20041;-63
2021/10/21 01:02:42;;;;;;;14.35;7.95;;;;;;;;;;5066680;28;20056;-61
2021/10/21 01:05:27;;;;;;;12.95;7.90;;;;;;;;;;5064454;28;20028;-70
2021/10/21 01:08:13;;;;;;;10.10;7.63;;;;;;;;;;5054543;28;20398;-63
2021/10/21 01:10:58;;;;;;;10.65;7.75;;;;;;;;;;5078032;28;20021;-64
2021/10/21 01:13:44;;;;;;;11.88;7.75;;;;;;;;;;5067816;28;20037;-63
2021/10/21 01:16:29;;;;;;;13.77;7.40;;;;;;;;;;5059647;28;20028;-62
2021/10/21 01:19:18;;;;;;;11.70;7.15;;;;;;;;;;5062762;28;20031;-65
2021/10/21 01:22:04;;;;;;;11.55;7.57;;;;;;;;;;5060758;28;20024;-64
2021/10/21 01:24:53;;;;;;;9.50;6.72;;;;;;;;;;5053640;28;20029;-69
2021/10/21 01:27:38;;;;;;;9.23;7.05;;;;;;;;;;5063429;28;20048;-71
2021/10/21 01:30:25;;;;;;;9.20;6.30;;;;;;;;;;5054579;28;20029;-69
2021/10/21 01:33:11;;;;;;;9.70;7.13;;;;;;;;;;5058503;28;20029;-70
2021/10/21 01:35:56;;;;;;;9.98;7.75;;;;;;;;;;5065664;28;20115;-69
2021/10/21 01:38:42;;;;;;;14.50;7.05;;;;;;;;;;5064829;28;20043;-70
2021/10/21 01:41:28;;;;;;;10.52;6.65;;;;;;;;;;5057355;28;20108;-72
2021/10/21 01:44:13;;;;;;;9.70;5.90;;;;;;;;;;5055849;28;20052;-61
2021/10/21 01:46:58;;;;;;;8.93;6.68;;;;;;;;;;5057140;28;20028;-60
2021/10/21 01:49:44;;;;;;;10.00;6.93;;;;;;;;;;5060956;28;20404;-61
2021/10/21 01:52:29;;;;;;;11.90;6.60;;;;;;;;;;5076733;28;20426;-61
2021/10/21 01:55:15;;;;;;;9.43;6.07;;;;;;;;;;5073748;28;20032;-60
2021/10/21 01:58:00;;;;;;;7.65;5.88;;;;;;;;;;5055164;28;20103;-60
2021/10/21 02:00:45;;;;;;;8.95;6.05;;;;;;;;;;5068171;28;20052;-67
2021/10/21 02:03:31;;;;;;;9.80;5.75;;;;;;;;;;5042049;28;20471;-63
2021/10/21 02:06:17;;;;;;;8.52;5.28;;;;;;;;;;5058879;28;20471;-64
2021/10/21 02:09:02;;;;;;;8.57;5.95;;;;;;;;;;5065174;28;20430;-62
2021/10/21 02:11:47;;;;;;;7.95;5.40;;;;;;;;;;5061342;28;20032;-64
2021/10/21 02:14:32;;;;;;;7.65;4.95;;;;;;;;;;5058370;28;20487;-63
2021/10/21 02:17:22;;;;;;;6.20;4.40;;;;;;;;;;5053817;28;20089;-59
2021/10/21 02:20:08;;;;;;;7.25;4.63;;;;;;;;;;5055005;28;20032;-62
2021/10/21 02:22:53;;;;;;;6.82;4.65;;;;;;;;;;5061132;28;20503;-62
2021/10/21 02:25:39;;;;;;;6.22;3.65;;;;;;;;;;5056346;28;20041;-62
2021/10/21 02:28:24;;;;;;;5.22;3.55;;;;;;;;;;5060881;28;20518;-61
2021/10/21 02:31:09;;;;;;;4.70;3.70;;;;;;;;;;5063752;28;20013;-61
2021/10/21 02:33:55;;;;;;;6.97;4.18;;;;;;;;;;5063569;28;20108;-61
2021/10/21 02:36:40;;;;;;;6.68;3.75;;;;;;;;;;5053727;28;20024;-67
2021/10/21 02:39:25;;;;;;;5.68;3.95;;;;;;;;;;5059268;28;20025;-68
2021/10/21 02:42:10;;;;;;;5.53;3.47;;;;;;;;;;5071369;28;20033;-66
2021/10/21 02:44:56;;;;;;;6.25;3.30;;;;;;;;;;5053148;28;20052;-68
2021/10/21 02:47:41;;;;;;;4.93;2.90;;;;;;;;;;5053142;28;20044;-67
2021/10/21 02:50:26;;;;;;;4.30;2.90;;;;;;;;;;5068133;28;20031;-66
2021/10/21 02:53:11;;;;;;;4.07;2.90;;;;;;;;;;5055134;28;20028;-68
2021/10/21 02:55:57;;;;;;;4.13;3.05;;;;;;;;;;5058209;28;20116;-69
2021/10/21 02:58:42;;;;;;;3.00;2.67;;;;;;;;;;5054305;28;20526;-64
2021/10/21 03:01:27;;;;;;;4.65;2.92;;;;;;;;;;5058767;28;20036;-65
2021/10/21 03:04:13;;;;;;;4.68;3.42;;;;;;;;;;5053720;28;20033;-62
2021/10/21 03:06:58;;;;;;;5.45;3.08;;;;;;;;;;5063508;28;20052;-64
2021/10/21 03:09:44;;;;;;;3.40;2.90;;;;;;;;;;5062643;28;20111;-63
2021/10/21 03:12:29;;;;;;;5.63;2.67;;;;;;;;;;5062277;28;20442;-64
2021/10/21 03:15:14;;;;;;;4.38;3.05;;;;;;;;;;5069350;28;20042;-68
2021/10/21 03:18:00;;;;;;;4.60;3.08;;;;;;;;;;5058884;28;20079;-69
2021/10/21 03:20:45;;;;;;;4.60;2.88;;;;;;;;;;5055124;28;20036;-69
2021/10/21 03:23:30;;;;;;;3.38;2.42;;;;;;;;;;5053564;28;20039;-69
2021/10/21 03:26:15;;;;;;;3.80;2.75;;;;;;;;;;5059544;28;20033;-71
2021/10/21 03:29:01;;;;;;;3.38;2.30;;;;;;;;;;5065288;28;20111;-69
2021/10/21 03:31:46;;;;;;;3.75;2.33;;;;;;;;;;5055949;28;20024;-67
2021/10/21 03:34:33;;;;;;;3.45;2.13;;;;;;;;;;5056317;28;20119;-61
2021/10/21 03:37:18;;;;;;;3.38;2.20;;;;;;;;;;5061031;28;20067;-62
2021/10/21 03:40:05;;;;;;;3.33;2.20;;;;;;;;;;5041575;28;20033;-62
2021/10/21 03:42:50;;;;;;;4.35;2.20;;;;;;;;;;5060507;28;20466;-61
2021/10/21 03:45:36;;;;;;;1.92;1.80;;;;;;;;;;5050841;28;20036;-64
2021/10/21 03:48:21;;;;;;;3.08;1.88;;;;;;;;;;5054524;28;20048;-64
2021/10/21 03:51:06;;;;;;;1.25;1.15;;;;;;;;;;5061449;28;20222;-62
2021/10/21 03:53:52;;;;;;;2.97;1.73;;;;;;;;;;5054277;28;20033;-64
2021/10/21 03:56:37;;;;;;;2.50;1.33;;;;;;;;;;5063554;28;20028;-63
2021/10/21 03:59:22;;;;;;;2.70;1.50;;;;;;;;;;5056145;28;20499;-61
2021/10/21 04:02:07;;;;;;;8.75;1.58;;;;;;;;;;5052635;28;20033;-61
2021/10/21 04:04:53;;;;;;;2.03;1.63;;;;;;;;;;5054104;28;20043;-60
2021/10/21 04:07:38;;;;;;;2.10;1.30;;;;;;;;;;5068235;28;20036;-62
2021/10/21 04:10:23;;;;;;;1.52;1.27;;;;;;;;;;5056925;28;20541;-69
2021/10/21 04:13:09;;;;;;;4.53;1.38;;;;;;;;;;5055600;28;20032;-68
2021/10/21 04:15:55;;;;;;;2.78;2.17;;;;;;;;;;5047405;28;20032;-70
2021/10/21 04:18:40;;;;;;;3.63;1.23;;;;;;;;;;5058271;28;20100;-68
2021/10/21 04:21:25;;;;;;;6.00;1.50;;;;;;;;;;5064017;28;20491;-69
2021/10/21 04:24:10;;;;;;;2.47;1.50;;;;;;;;;;5058196;28;20035;-69
2021/10/21 04:26:56;;;;;;;3.30;1.27;;;;;;;;;;5067952;28;20170;-66
2021/10/21 04:29:41;;;;;;;1.63;1.02;;;;;;;;;;5063606;28;20028;-67
2021/10/21 04:32:26;;;;;;;5.25;1.08;;;;;;;;;;5045767;28;20033;-67
2021/10/21 04:35:11;;;;;;;3.60;0.90;;;;;;;;;;5055187;28;20044;-67
2021/10/21 04:37:57;;;;;;;4.57;1.02;;;;;;;;;;5070997;28;20602;-66
2021/10/21 04:40:42;;;;;;;2.80;0.95;;;;;;;;;;5063168;28;20028;-67
2021/10/21 04:43:27;;;;;;;2.92;1.38;;;;;;;;;;5058045;28;20123;-68
2021/10/21 04:46:12;;;;;;;2.17;1.00;;;;;;;;;;5060964;28;20068;-66
2021/10/21 04:48:58;;;;;;;3.90;1.00;;;;;;;;;;5078757;28;20035;-62
2021/10/21 04:51:43;;;;;;;3.28;1.13;;;;;;;;;;5069939;28;20024;-63
2021/10/21 04:54:28;;;;;;;2.90;1.17;;;;;;;;;;5058175;28;20064;-67
2021/10/21 04:57:14;;;;;;;2.78;1.20;;;;;;;;;;5057660;28;20025;-63
2021/10/21 04:59:59;;;;;;;4.20;1.17;;;;;;;;;;5071632;28;20077;-65
2021/10/21 05:02:44;;;;;;;6.60;1.00;;;;;;;;;;5069568;28;20521;-72
2021/10/21 05:05:30;;;;;;;2.60;1.10;;;;;;;;;;5062664;28;20151;-63
2021/10/21 05:08:15;;;;;;;7.20;1.52;;;;;;;;;;5057427;28;20495;-65
2021/10/21 05:11:01;;;;;;;3.45;1.25;;;;;;;;;;5071218;28;20020;-64
2021/10/21 05:13:46;;;;;;;4.80;1.65;;;;;;;;;;5058724;28;20093;-64
2021/10/21 05:16:31;;;;;;;7.43;1.23;;;;;;;;;;5058118;28;20420;-65
2021/10/21 05:19:16;;;;;;;8.18;2.22;;;;;;;;;;5058652;28;20111;-64
2021/10/21 05:22:02;;;;;;;8.57;2.75;;;;;;;;;;5060326;28;20552;-64
2021/10/21 05:24:47;;;;;;;6.72;1.48;;;;;;;;;;5046425;28;20092;-70
2021/10/21 05:27:33;;;;;;;6.05;1.52;;;;;;;;;;5065542;28;20429;-73
2021/10/21 05:30:18;;;;;;;5.95;1.65;;;;;;;;;;5068806;28;20029;-70
2021/10/21 05:33:04;;;;;;;9.02;1.48;;;;;;;;;;5060395;28;20087;-69
2021/10/21 05:35:49;;;;;;;5.38;1.35;;;;;;;;;;5056333;28;20021;-70
2021/10/21 05:38:35;;;;;;;5.72;1.23;;;;;;;;;;5057079;28;20029;-70
2021/10/21 05:41:20;;;;;;;7.13;1.38;;;;;;;;;;5056146;28;20484;-64
2021/10/21 05:44:05;;;;;;;5.28;1.30;;;;;;;;;;5063759;28;20017;-66
2021/10/21 05:46:51;;;;;;;8.15;1.92;;;;;;;;;;5064318;28;20523;-70
2021/10/21 05:49:36;;;;;;;5.68;1.40;;;;;;;;;;5057167;28;20194;-66
2021/10/21 05:52:25;;;;;;;7.82;1.80;;;;;;;;;;5058654;28;20490;-66
2021/10/21 05:55:10;;;;;;;6.35;1.48;;;;;;;;;;5063140;28;20068;-69
2021/10/21 05:57:55;;;;;;;6.35;1.42;;;;;;;;;;5061874;28;20035;-64
2021/10/21 06:00:40;;;;;;;7.70;1.67;;;;;;;;;;5073033;28;20032;-69
2021/10/21 06:03:26;;;;;;;9.00;1.80;;;;;;;;;;5062457;28;20028;-68
2021/10/21 06:06:12;;;;;;;9.07;2.00;;;;;;;;;;5066426;28;20040;-70
2021/10/21 06:08:57;;;;;;;6.53;1.88;;;;;;;;;;5062978;28;20031;-70
2021/10/21 06:11:42;;;;;;;8.25;1.70;;;;;;;;;;5054088;28;20093;-70
2021/10/21 06:14:31;;;;;;;6.88;1.75;;;;;;;;;;5065253;28;20482;-70
2021/10/21 06:17:16;;;;;;;4.75;1.55;;;;;;;;;;5065439;28;20028;-64
2021/10/21 06:20:01;;;;;;;7.90;2.25;;;;;;;;;;5050128;28;20122;-62
2021/10/21 06:22:46;;;;;;;8.18;1.73;;;;;;;;;;5053247;28;20029;-63
2021/10/21 06:25:32;;;;;;;11.25;2.20;;;;;;;;;;5060354;28;20063;-64
2021/10/21 06:28:18;;;;;;;6.72;1.70;;;;;;;;;;5052449;28;20066;-61
2021/10/21 06:31:03;;;;;;;6.43;1.40;;;;;;;;;;5059430;28;20027;-66
2021/10/21 06:33:49;;;;;;;8.93;2.42;;;;;;;;;;5057854;28;20047;-60
2021/10/21 06:36:34;;;;;;;5.63;1.65;;;;;;;;;;5073803;28;20057;-68
2021/10/21 06:39:19;;;;;;;8.15;1.98;;;;;;;;;;5062293;28;20220;-68
2021/10/21 06:42:05;;;;;;;8.93;2.00;;;;;;;;;;5057768;28;20029;-67
2021/10/21 06:44:50;;;;;;;6.10;1.58;;;;;;;;;;5061099;28;20055;-67
2021/10/21 06:47:37;;;;;;;9.82;1.98;;;;;;;;;;5058185;28;20061;-66
2021/10/21 06:50:22;;;;;;;7.25;1.90;;;;;;;;;;5047100;28;20067;-68
2021/10/21 06:53:08;;;;;;;10.77;2.58;;;;;;;;;;5055377;28;20029;-73
2021/10/21 06:55:53;;;;;;;8.40;1.90;;;;;;;;;;5061013;28;20073;-73
2021/10/21 06:58:39;;;;;;;7.97;1.92;;;;;;;;;;5065336;28;20033;-65
2021/10/21 07:01:24;;;;;;;4.25;1.30;;;;;;;;;;5057375;28;20048;-63
2021/10/21 07:04:09;;;;;;;5.60;1.63;;;;;;;;;;5055300;28;20472;-65
2021/10/21 07:06:57;;;;;;;7.05;1.83;;;;;;;;;;5048578;28;20098;-63
2021/10/21 07:09:42;;;;;;;7.47;1.60;;;;;;;;;;5069006;28;20064;-68
2021/10/21 07:12:27;;;;;;;6.30;1.55;;;;;;;;;;5059635;28;20244;-68
2021/10/21 07:15:13;;;;;;;5.72;1.42;;;;;;;;;;5058857;28;20033;-62
2021/10/21 07:17:58;;;;;;;10.52;2.20;;;;;;;;;;5053408;28;20024;-64
2021/10/21 07:20:46;;;;;;;6.57;1.52;;;;;;;;;;5060150;28;20058;-62
2021/10/21 07:23:32;;;;;;;5.80;1.70;;;;;;;;;;5059992;28;20449;-66
2021/10/21 07:26:17;;;;;;;8.13;2.00;;;;;;;;;;5065342;28;20494;-63
2021/10/21 07:29:02;;;;;;;6.68;1.65;;;;;;;;;;5055187;28;20387;-63
2021/10/21 07:31:48;;;;;;;6.85;1.73;;;;;;;;;;5053690;28;20025;-74
2021/10/21 07:34:33;;;;;;;7.78;1.60;;;;;;;;;;5075982;28;20408;-61
2021/10/21 07:37:18;;;;;;;7.30;2.08;;;;;;;;;;5064664;28;20031;-62
2021/10/21 07:40:04;;;;;;;4.20;1.38;;;;;;;;;;5059193;28;20383;-63
2021/10/21 07:42:50;;;;;;;7.93;1.85;;;;;;;;;;5076558;28;20092;-64
2021/10/21 07:45:35;;;;;;;8.57;1.67;;;;;;;;;;5055087;28;20245;-62
2021/10/21 07:48:20;;;;;;;6.70;1.13;;;;;;;;;;5054146;28;20060;-71
2021/10/21 07:51:06;;;;;;;5.07;1.52;;;;;;;;;;5056739;28;20054;-64
2021/10/21 07:53:51;;;;;;;5.60;1.35;;;;;;;;;;5040398;28;20020;-61
2021/10/21 07:56:36;;;;;;;4.10;1.20;;;;;;;;;;5054745;28;20025;-67
2021/10/21 07:59:22;;;;;;;7.03;1.38;;;;;;;;;;5053929;28;20120;-66
2021/10/21 08:02:08;;;;;;;4.45;1.10;;;;;;;;;;5051160;28;20021;-64
2021/10/21 08:04:53;;;;;;;5.97;1.20;;;;;;;;;;5058992;28;20040;-67
2021/10/21 08:07:42;;;;;;;5.78;1.13;;;;;;;;;;5060552;28;20497;-65
2021/10/21 08:10:27;;;;;;;2.70;1.00;;;;;;;;;;5067879;28;20028;-66
2021/10/21 08:13:14;;;;;;;4.43;1.10;;;;;;;;;;5059398;28;20036;-67
2021/10/21 08:15:59;;;;;;;4.07;1.20;;;;;;;;;;5060850;28;20070;-67
2021/10/21 08:18:44;;;;;;;6.40;1.15;;;;;;;;;;5039024;28;20434;-66
2021/10/21 08:21:30;;;;;;;1.75;0.93;;;;;;;;;;5047153;28;20043;-64
2021/10/21 08:24:18;;;;;;;2.13;0.88;;;;;;;;;;5062482;28;20111;-65
2021/10/21 08:27:03;;;;;;;1.83;1.00;;;;;;;;;;5051478;28;20029;-62
2021/10/21 08:29:49;;;;;;;3.70;1.00;;;;;;;;;;5059030;28;20141;-71
2021/10/21 08:32:35;;;;;;;6.25;1.52;;;;;;;;;;5053342;28;20064;-67
2021/10/21 08:35:20;;;;;;;2.15;1.42;;;;;;;;;;5055857;28;20033;-69
2021/10/21 08:38:06;;;;;;;5.07;1.13;;;;;;;;;;5053876;28;20052;-70
2021/10/21 08:40:51;;;;;;;6.93;1.63;;;;;;;;;;5066217;28;20518;-69
2021/10/21 08:43:36;;;;;;;10.88;1.42;;;;;;;;;;5051671;28;20040;-62
2021/10/21 08:46:23;;;;;;;2.22;0.88;;;;;;;;;;5056773;28;20080;-64
2021/10/21 08:49:08;;;;;;;6.05;1.10;;;;;;;;;;5048011;28;20028;-68
2021/10/21 08:51:55;;;;;;;5.65;1.00;;;;;;;;;;5056277;28;20025;-67
2021/10/21 08:54:40;;;;;;;5.28;1.00;;;;;;;;;;5046274;28;20072;-66
2021/10/21 08:57:26;;;;;;;4.53;1.27;;;;;;;;;;5054347;28;20055;-71
2021/10/21 09:00:13;;;;;;;4.00;0.95;;;;;;;;;;5052617;28;20025;-68
2021/10/21 09:03:02;;;;;;;4.78;0.90;;;;;;;;;;5062652;28;20025;-66
2021/10/21 09:05:55;;;;;;;4.50;1.00;;;;;;;;;;5045547;28;20081;-66
2021/10/21 09:08:43;;;;;;;2.53;0.90;;;;;;;;;;5060406;28;20044;-63
2021/10/21 09:11:29;;;;;;;4.43;1.13;;;;;;;;;;5067388;28;20640;-68
2021/10/21 09:14:14;;;;;;;3.65;0.88;;;;;;;;;;5055754;28;20150;-65
2021/10/21 09:17:00;;;;;;;5.13;0.98;;;;;;;;;;5063239;28;20021;-64
2021/10/21 09:19:46;;;;;;;3.20;1.20;;;;;;;;;;5053587;28;20029;-67
2021/10/21 09:22:31;;;;;;;6.18;1.10;;;;;;;;;;5074872;28;20388;-81
2021/10/21 09:25:20;;;;;;;3.10;1.35;;;;;;;;;;5060824;28;20056;-62
2021/10/21 09:28:25;;;;;;;2.13;0.98;;;;;;;;;;5063323;28;20029;-60
2021/10/21 09:31:12;;;;;;;3.42;1.08;;;;;;;;;;5078374;28;20039;-60
2021/10/21 09:33:57;;;;;;;2.03;0.88;;;;;;;;;;5060313;28;20031;-61
2021/10/21 09:36:42;;;;;;;3.05;0.70;;;;;;;;;;5069990;28;20060;-63
2021/10/21 09:39:39;;;;;;;2.80;1.13;;;;;;;;;;5058328;28;20033;-67
2021/10/21 09:42:26;;;;;;;3.90;0.88;;;;;;;;;;5079291;28;20041;-65
2021/10/21 09:45:15;;;;;;;1.30;1.30;;;;;;;;;;5056497;28;20043;-67
2021/10/21 09:48:01;;;;;;;4.17;1.70;;;;;;;;;;5063611;28;20044;-63
2021/10/21 09:50:47;;;;;;;3.33;1.63;;;;;;;;;;5056581;28;20455;-69
2021/10/21 09:53:32;;;;;;;1.60;1.50;;;;;;;;;;5054909;28;20094;-64
2021/10/21 09:56:17;;;;;;;4.13;3.22;;;;;;;;;;5056060;28;20133;-64
2021/10/21 09:59:06;;;;;;;4.80;2.35;;;;;;;;;;5056106;28;20036;-75
2021/10/21 10:01:53;;;;;;;2.40;2.20;;;;;;;;;;5043428;28;20032;-63
2021/10/21 10:04:39;;;;;;;3.30;3.10;;;;;;;;;;5064161;28;20047;-61
2021/10/21 10:07:25;;;;;;;3.60;2.33;;;;;;;;;;5065381;28;20119;-61
2021/10/21 10:10:10;;;;;;;4.38;3.25;;;;;;;;;;5064428;28;20385;-61
2021/10/21 10:12:55;;;;;;;2.63;2.38;;;;;;;;;;5060868;28;20040;-65
2021/10/21 10:15:44;;;;;;;5.00;4.22;;;;;;;;;;5068832;28;20029;-64
2021/10/21 10:18:31;;;;;;;5.80;5.47;;;;;;;;;;5055358;28;20035;-63
2021/10/21 10:21:18;;;;;;;3.97;1.50;;;;;;;;;;5044490;28;20517;-66
2021/10/21 10:24:09;;;;;;;2.35;1.17;;;;;;;;;;5066097;28;20138;-67
2021/10/21 10:26:57;;;;;;;2.28;1.10;;;;;;;;;;5047126;28;20061;-71
2021/10/21 10:29:45;;;;;;;2.45;0.90;;;;;;;;;;5063843;28;20051;-68
2021/10/21 10:32:38;;;;;;;2.78;1.05;;;;;;;;;;5065653;28;20029;-68
2021/10/21 10:35:31;;;;;;;3.30;1.15;;;;;;;;;;5059007;28;20021;-61
2021/10/21 10:38:33;;;;;;;3.80;1.13;;;;;;;;;;5051004;28;20024;-65
2021/10/21 10:41:57;;;;;;;3.60;0.93;;;;;;;;;;5065203;28;20321;-64
2021/10/21 10:44:48;;;;;;;1.92;0.82;;;;;;;;;;4995099;28;20034;-66
2021/10/21 10:47:50;;;;;;;1.63;1.25;;;;;;;;;;4998162;28;20072;-66
2021/10/21 10:50:35;;;;;;;3.80;1.20;;;;;;;;;;5006856;28;20401;-66
2021/10/21 10:53:40;;;;;;;2.83;1.58;;;;;;;;;;4997550;28;20022;-65
2021/10/21 10:56:38;;;;;;;3.08;1.10;;;;;;;;;;5002626;28;20072;-55
2021/10/21 10:59:29;;;;;;;3.38;0.95;;;;;;;;;;4994664;28;20433;-52
2021/10/21 11:02:27;;;;;;;4.60;1.30;;;;;;;;;;4997260;28;20112;-53
2021/10/21 11:05:13;;;;;;;3.15;1.55;;;;;;;;;;4993226;28;20034;-55
2021/10/21 11:07:58;;;;;;;2.72;1.08;;;;;;;;;;5007768;28;20045;-53
2021/10/21 11:10:52;;;;;;;4.43;1.75;;;;;;;;;;4985417;28;20079;-49
2021/10/21 11:13:41;;;;;;;3.42;1.20;;;;;;;;;;4998273;28;20312;-64
2021/10/21 11:16:43;;;;;;;5.03;1.23;;;;;;;;;;5059068;28;20035;-62
2021/10/21 11:19:45;;;;;;;2.85;1.13;;;;;;;;;;5062997;28;20044;-60
2021/10/21 11:22:30;;;;;;;4.75;1.83;;;;;;;;;;5057197;28;20106;-65
2021/10/21 11:25:15;;;;;;;8.80;2.03;;;;;;;;;;5054863;28;20032;-64
2021/10/21 11:28:01;;;;;;;4.10;1.40;;;;;;;;;;5062213;28;20064;-62
2021/10/21 11:30:47;;;;;;;3.40;1.33;;;;;;;;;;5061782;28;20020;-68
2021/10/21 11:33:32;;;;;;;5.53;1.63;;;;;;;;;;5053968;28;20035;-55
2021/10/21 11:36:18;;;;;;;4.80;1.27;;;;;;;;;;5053303;28;20687;-54
2021/10/21 11:39:06;;;;;;;3.58;1.20;;;;;;;;;;5050666;28;20029;-53
2021/10/21 11:41:52;;;;;;;3.80;1.13;;;;;;;;;;5057419;28;20039;-54
2021/10/21 11:44:38;;;;;;;5.28;1.30;;;;;;;;;;5054544;28;20274;-54
2021/10/21 11:47:25;;;;;;;3.08;1.05;;;;;;;;;;5066171;28;20052;-63
2021/10/21 11:50:11;;;;;;;5.57;2.13;;;;;;;;;;5055241;28;20067;-62
2021/10/21 11:52:56;;;;;;;6.50;2.88;;;;;;;;;;5062533;28;20025;-56
2021/10/21 11:55:42;;;;;;;3.67;1.33;;;;;;;;;;5063902;28;20068;-54
2021/10/21 11:58:30;;;;;;;5.00;1.25;;;;;;;;;;5055048;28;20029;-53
2021/10/21 12:01:21;;;;;;;2.33;1.02;;;;;;;;;;5055356;28;20045;-58
2021/10/21 12:04:08;;;;;;;6.53;1.60;;;;;;;;;;5055428;28;20037;-57
2021/10/21 12:06:53;;;;;;;9.00;1.50;;;;;;;;;;5058110;28;20036;-65
2021/10/21 12:09:39;;;;;;;5.50;1.55;;;;;;;;;;5055340;28;20035;-65
2021/10/21 12:12:35;;;;;;;4.93;1.20;;;;;;;;;;5060537;28;20387;-69
2021/10/21 12:15:26;;;;;;;3.92;1.13;;;;;;;;;;5065417;28;20044;-67
2021/10/21 12:18:11;;;;;;;1.65;0.90;;;;;;;;;;5063122;28;20021;-66
2021/10/21 12:21:02;;;;;;;4.22;1.23;;;;;;;;;;5063170;28;20029;-66
2021/10/21 12:23:49;;;;;;;2.88;1.60;;;;;;;;;;5058557;28;20028;-68
2021/10/21 12:26:34;;;;;;;3.33;1.23;;;;;;;;;;5053368;28;20028;-66
2021/10/21 12:29:19;;;;;;;1.70;1.10;;;;;;;;;;5050957;28;20036;-73
2021/10/21 12:32:15;;;;;;;5.70;1.27;;;;;;;;;;5056808;28;20017;-66
2021/10/21 12:35:05;;;;;;;2.30;1.17;;;;;;;;;;5054114;28;20024;-66
2021/10/21 12:37:55;;;;;;;2.70;0.98;;;;;;;;;;5061535;28;20368;-66
2021/10/21 12:40:40;;;;;;;;;;;;;;;;;;5059738;28;20526;-65
2021/10/21 12:43:25;;;;;;;5.68;1.20;;;;;;;;;;5052872;28;19915;-57
2021/10/21 12:46:27;;;;;;;3.53;1.17;;;;;;;;;;5054847;28;20561;-61
2021/10/21 12:49:13;;;;;;;2.45;1.20;;;;;;;;;;5065836;28;20028;-60
2021/10/21 12:52:10;;;;;;;4.43;1.00;;;;;;;;;;5048487;28;20164;-62
2021/10/21 12:55:08;;;;;;;2.65;0.98;;;;;;;;;;5060369;28;20472;-61
2021/10/21 12:57:55;;;;;;;2.90;1.33;;;;;;;;;;5059489;28;20108;-60
2021/10/21 13:00:48;;;;;;;3.78;1.08;;;;;;;;;;5058169;28;20044;-56
2021/10/21 13:03:42;;;;;;;3.53;1.58;;;;;;;;;;5053942;28;20515;-63
2021/10/21 13:06:27;;;;;;;4.32;0.98;;;;;;;;;;5060572;28;20043;-65
2021/10/21 13:09:12;;;;;;;2.15;0.77;;;;;;;;;;5064100;28;20032;-64
2021/10/21 13:11:58;;;;;;;3.28;1.02;;;;;;;;;;5060150;28;20037;-65
2021/10/21 13:14:44;;;;;;;4.45;1.10;;;;;;;;;;5062423;28;20392;-64
2021/10/21 13:17:29;;;;;;;1.25;0.80;;;;;;;;;;5042211;28;20120;-64
2021/10/21 13:20:15;;;;;;;5.38;1.00;;;;;;;;;;5058280;28;20032;-63
2021/10/21 13:23:00;;;;;;;3.60;0.93;;;;;;;;;;5065043;28;20024;-68
2021/10/21 13:25:46;;;;;;;4.25;0.90;;;;;;;;;;5064052;28;20111;-67
2021/10/21 13:28:31;;;;;;;5.22;1.23;;;;;;;;;;5056358;28;20067;-66
2021/10/21 13:31:16;;;;;;;4.05;1.00;;;;;;;;;;5062043;28;20111;-66
2021/10/21 13:34:02;;;;;;;1.90;0.77;;;;;;;;;;5057686;28;20090;-68
2021/10/21 13:36:47;;;;;;;2.33;0.90;;;;;;;;;;5052551;28;20509;-68
2021/10/21 13:39:39;;;;;;;2.22;1.08;;;;;;;;;;5063774;28;20029;-55
2021/10/21 13:42:25;;;;;;;2.28;0.90;;;;;;;;;;5065800;28;20064;-67
2021/10/21 13:45:10;;;;;;;1.55;0.95;;;;;;;;;;5054847;28;20025;-63
2021/10/21 13:47:55;;;;;;;2.17;1.05;;;;;;;;;;5055390;28;20066;-66
2021/10/21 13:50:41;;;;;;;2.55;1.40;;;;;;;;;;5063948;28;20498;-62
2021/10/21 13:53:26;;;;;;;4.00;1.08;;;;;;;;;;5056661;28;20024;-61
2021/10/21 13:56:12;;;;;;;1.92;1.00;;;;;;;;;;5058887;28;20103;-66
2021/10/21 13:58:58;;;;;;;2.90;1.08;;;;;;;;;;5072788;28;20036;-66
2021/10/21 14:01:43;;;;;;;2.80;1.05;;;;;;;;;;5056582;28;20040;-68
2021/10/21 14:04:29;;;;;;;4.20;1.20;;;;;;;;;;5057940;28;20025;-70
2021/10/21 14:07:14;;;;;;;2.40;1.02;;;;;;;;;;5056365;28;20036;-66
2021/10/21 14:10:00;;;;;;;4.15;1.33;;;;;;;;;;5065091;28;20023;-64
2021/10/21 14:12:45;;;;;;;2.25;1.00;;;;;;;;;;5047808;28;20111;-66
2021/10/21 14:15:31;;;;;;;3.25;1.10;;;;;;;;;;5055756;28;20032;-57
2021/10/21 14:18:17;;;;;;;5.78;1.08;;;;;;;;;;5065556;28;20375;-64
2021/10/21 14:21:02;;;;;;;1.70;0.80;;;;;;;;;;5066488;28;20467;-64
2021/10/21 14:23:47;;;;;;;2.97;1.00;;;;;;;;;;5052855;28;20036;-64
2021/10/21 14:26:33;;;;;;;2.70;1.30;;;;;;;;;;5051528;28;20052;-61
2021/10/21 14:29:19;;;;;;;4.60;1.10;;;;;;;;;;5056432;28;20033;-63
2021/10/21 14:32:04;;;;;;;2.10;1.20;;;;;;;;;;5060895;28;20020;-62
2021/10/21 14:34:49;;;;;;;3.10;1.20;;;;;;;;;;5054720;28;20123;-57
2021/10/21 14:37:41;;;;;;;1.95;1.10;;;;;;;;;;5051169;28;20063;-66
2021/10/21 14:40:26;;;;;;;3.78;1.20;;;;;;;;;;5067379;28;20055;-64
2021/10/21 14:43:11;;;;;;;3.90;1.08;;;;;;;;;;5054590;28;20482;-68
2021/10/21 14:45:56;;;;;;;4.95;1.60;;;;;;;;;;5058592;28;20052;-65
2021/10/21 14:48:44;;;;;;;3.92;1.30;;;;;;;;;;5054237;28;20083;-68
2021/10/21 14:51:32;;;;;;;3.63;1.30;;;;;;;;;;5062270;28;20036;-66
2021/10/21 14:54:17;;;;;;;5.32;1.48;;;;;;;;;;5047683;28;20438;-58
2021/10/21 14:57:03;;;;;;;2.40;1.05;;;;;;;;;;5051690;28;20039;-61
2021/10/21 14:59:48;;;;;;;2.42;1.15;;;;;;;;;;5059584;28;20017;-60
2021/10/21 15:02:33;;;;;;;10.35;1.63;;;;;;;;;;5055273;28;20086;-59
2021/10/21 15:05:20;;;;;;;6.00;1.00;;;;;;;;;;5058289;28;20116;-58
2021/10/21 15:08:53;;;;;;;4.10;1.40;;;;;;;;;;5061180;28;20506;-58
2021/10/21 15:23:20;;;;;;;4.93;1.33;;;;;;;;;;5061264;28;20047;-62
2021/10/21 15:26:05;;;;;;;11.18;1.50;;;;;;;;;;5062173;28;20024;-61
2021/10/21 15:28:51;;;;;;;5.75;1.33;;;;;;;;;;5050295;28;20310;-63
2021/10/21 15:31:36;;;;;;;5.05;1.30;;;;;;;;;;5046700;28;20108;-72
2021/10/21 15:34:21;;;;;;;5.07;1.50;;;;;;;;;;5054408;28;20475;-66
2021/10/21 15:37:09;;;;;;;5.75;1.55;;;;;;;;;;5057358;28;20035;-63
2021/10/21 15:39:55;;;;;;;6.07;1.48;;;;;;;;;;5062994;28;20052;-66
2021/10/21 15:42:40;;;;;;;4.53;1.40;;;;;;;;;;5053984;28;20041;-65
2021/10/21 16:12:33;;;;;;;5.72;1.55;;;;;;;;;;5080106;28;20715;-63
2021/10/21 16:15:18;;;;;;;4.85;1.40;;;;;;;;;;5050116;28;20510;-63
2021/10/21 16:18:07;;;;;;;8.10;1.73;;;;;;;;;;5056785;28;20350;-63
2021/10/21 16:20:54;;;;;;;7.32;1.88;;;;;;;;;;5054136;28;20077;-63
2021/10/21 16:23:41;;;;;;;5.18;1.42;;;;;;;;;;5059203;28;20458;-79
2021/10/21 16:26:29;;;;;;;5.28;1.73;;;;;;;;;;5063754;28;20052;-63
2021/10/21 16:29:15;;;;;;;5.97;2.35;;;;;;;;;;5058204;28;20040;-65
2021/10/21 16:32:00;;;;;;;10.18;2.42;;;;;;;;;;5063680;28;20028;-63
2021/10/21 16:34:45;;;;;;;11.43;3.00;;;;;;;;;;5061510;28;20033;-65
2021/10/21 16:37:31;;;;;;;12.50;3.38;;;;;;;;;;5058602;28;20032;-68
2021/10/21 16:40:16;;;;;;;13.32;3.95;;;;;;;;;;5059272;28;20056;-66
2021/10/21 16:43:02;;;;;;;6.30;1.70;;;;;;;;;;5058012;28;20498;-81
2021/10/21 16:45:47;;;;;;;12.80;3.63;;;;;;;;;;5060842;28;20044;-72
2021/10/21 16:48:32;;;;;;;7.57;2.55;;;;;;;;;;5062548;28;20033;-71
2021/10/21 16:51:18;;;;;;;6.05;1.58;;;;;;;;;;5063358;28;20028;-70
2021/10/21 16:54:05;;;;;;;8.88;3.75;;;;;;;;;;5057611;28;20029;-71
2021/10/21 16:56:50;;;;;;;7.40;3.10;;;;;;;;;;5065816;28;20040;-71
2021/10/21 16:59:36;;;;;;;7.20;3.65;;;;;;;;;;5057536;28;20116;-72
2021/10/21 17:02:24;;;;;;;11.10;3.78;;;;;;;;;;5058803;28;20085;-67
2021/10/21 17:05:10;;;;;;;8.00;3.70;;;;;;;;;;5061607;28;20029;-68
2021/10/21 17:07:55;;;;;;;7.22;2.80;;;;;;;;;;5079843;28;20051;-66
2021/10/21 17:10:40;;;;;;;7.00;1.77;;;;;;;;;;5050960;28;20035;-63
2021/10/21 17:13:26;;;;;;;5.90;1.77;;;;;;;;;;5056589;28;20037;-70
2021/10/21 17:16:12;;;;;;;10.18;2.15;;;;;;;;;;5059300;28;20020;-65